createdAt,value
2018-03-15T00:00:27.640Z,15.48
2018-03-15T00:01:00.388Z,15.50
2018-03-15T00:01:32.933Z,14.85
2018-03-15T00:02:05.441Z,15.50
2018-03-15T00:02:37.953Z,15.60
2018-03-15T00:03:16.960Z,14.52
2018-03-15T00:03:49.477Z,14.15
2018-03-15T00:04:21.988Z,16.27
2018-03-15T00:04:54.495Z,15.05
2018-03-15T00:05:27.066Z,14.93
2018-03-15T00:05:59.567Z,15.00
2018-03-15T00:06:32.086Z,15.07
2018-03-15T00:07:04.698Z,16.37
2018-03-15T00:07:37.297Z,15.35
2018-03-15T00:08:09.806Z,16.12
2018-03-15T00:08:42.337Z,15.45
2018-03-15T00:09:14.850Z,14.52
2018-03-15T00:09:48.178Z,15.20
2018-03-15T00:10:20.684Z,15.32
2018-03-15T00:10:53.326Z,14.98
2018-03-15T00:11:25.835Z,14.65
2018-03-15T00:11:58.430Z,14.43
2018-03-15T00:12:30.946Z,14.77
2018-03-15T00:13:03.487Z,14.20
2018-03-15T00:13:36.038Z,15.82
2018-03-15T00:14:08.542Z,15.60
2018-03-15T00:14:41.061Z,15.20
2018-03-15T00:15:13.818Z,14.98
2018-03-15T00:15:46.331Z,14.63
2018-03-15T00:16:18.871Z,14.55
2018-03-15T00:16:51.432Z,16.00
2018-03-15T00:17:24.075Z,15.50
2018-03-15T00:17:56.644Z,15.88
2018-03-15T00:18:29.163Z,15.68
2018-03-15T00:19:01.689Z,15.07
2018-03-15T00:19:34.211Z,14.63
2018-03-15T00:20:07.537Z,16.60
2018-03-15T00:20:40.020Z,16.23
2018-03-15T00:21:12.522Z,16.10
2018-03-15T00:21:45.819Z,16.50
2018-03-15T00:22:18.312Z,16.25
2018-03-15T00:22:51.041Z,14.52
2018-03-15T00:23:23.569Z,15.35
2018-03-15T00:23:56.080Z,16.40
2018-03-15T00:24:28.609Z,16.50
2018-03-15T00:25:01.216Z,15.63
2018-03-15T00:25:33.728Z,16.73
2018-03-15T00:26:06.245Z,15.98
2018-03-15T00:26:38.894Z,17.75
2018-03-15T00:27:11.409Z,16.65
2018-03-15T00:27:44.114Z,16.35
2018-03-15T00:28:16.636Z,16.48
2018-03-15T00:28:49.169Z,14.75
2018-03-15T00:29:21.677Z,17.08
2018-03-15T00:29:54.945Z,15.32
2018-03-15T00:30:27.453Z,16.40
2018-03-15T00:31:00.008Z,13.93
2018-03-15T00:31:32.522Z,14.73
2018-03-15T00:32:05.030Z,15.10
2018-03-15T00:32:38.307Z,16.20
2018-03-15T00:33:10.896Z,15.50
2018-03-15T00:33:43.560Z,15.75
2018-03-15T00:34:16.361Z,15.52
2018-03-15T00:34:48.874Z,16.42
2018-03-15T00:35:21.379Z,16.20
2018-03-15T00:35:53.990Z,16.50
2018-03-15T00:36:26.500Z,16.00
2018-03-15T00:36:59.019Z,15.85
2018-03-15T00:37:32.307Z,15.25
2018-03-15T00:38:04.865Z,15.80
2018-03-15T00:38:37.382Z,15.52
2018-03-15T00:39:09.919Z,14.93
2018-03-15T00:39:42.707Z,14.95
2018-03-15T00:40:15.216Z,14.77
2018-03-15T00:40:47.727Z,13.70
2018-03-15T00:41:20.256Z,15.95
2018-03-15T00:41:52.821Z,16.37
2018-03-15T00:42:25.324Z,15.55
2018-03-15T00:42:57.839Z,15.48
2018-03-15T00:43:31.118Z,14.90
2018-03-15T00:44:03.624Z,16.10
2018-03-15T00:44:36.130Z,15.55
2018-03-15T00:45:08.845Z,15.63
2018-03-15T00:45:41.394Z,16.10
2018-03-15T00:46:13.892Z,14.70
2018-03-15T00:46:46.533Z,14.50
2018-03-15T00:47:19.038Z,15.05
2018-03-15T00:47:51.554Z,14.90
2018-03-15T00:48:24.210Z,15.13
2018-03-15T00:48:56.723Z,13.73
2018-03-15T00:49:29.263Z,15.70
2018-03-15T00:50:01.789Z,14.93
2018-03-15T00:50:35.071Z,15.57
2018-03-15T00:51:07.586Z,14.90
2018-03-15T00:51:40.100Z,14.63
2018-03-15T00:52:13.381Z,14.95
2018-03-15T00:52:45.952Z,15.90
2018-03-15T00:53:18.514Z,15.23
2018-03-15T00:53:51.033Z,14.05
2018-03-15T00:54:23.534Z,15.45
2018-03-15T00:54:56.815Z,15.75
2018-03-15T00:55:29.324Z,15.90
2018-03-15T00:56:02.033Z,16.52
2018-03-15T00:56:34.754Z,15.45
2018-03-15T00:57:07.320Z,14.48
2018-03-15T00:57:39.963Z,15.50
2018-03-15T00:58:12.632Z,15.43
2018-03-15T00:58:45.154Z,16.55
2018-03-15T00:59:17.957Z,15.52
2018-03-15T00:59:50.499Z,15.65
2018-03-15T01:00:23.019Z,14.60
2018-03-15T01:00:55.598Z,15.82
2018-03-15T01:01:28.150Z,15.40
2018-03-15T01:02:00.777Z,16.67
2018-03-15T01:02:33.346Z,14.90
2018-03-15T01:03:05.898Z,15.20
2018-03-15T01:03:38.447Z,16.65
2018-03-15T01:04:11.120Z,15.77
2018-03-15T01:04:43.631Z,16.55
2018-03-15T01:05:16.185Z,14.43
2018-03-15T01:05:48.696Z,15.50
2018-03-15T01:06:21.222Z,15.23
2018-03-15T01:06:53.750Z,15.10
2018-03-15T01:07:26.287Z,17.50
2018-03-15T01:07:59.570Z,14.27
2018-03-15T01:08:32.076Z,15.10
2018-03-15T01:09:04.583Z,15.40
2018-03-15T01:09:37.085Z,17.10
2018-03-15T01:10:09.765Z,16.12
2018-03-15T01:10:42.699Z,14.35
2018-03-15T01:11:15.970Z,14.93
2018-03-15T01:11:48.677Z,15.38
2018-03-15T01:12:21.222Z,15.57
2018-03-15T01:12:54.631Z,16.30
2018-03-15T01:13:27.151Z,17.15
2018-03-15T01:13:59.866Z,16.70
2018-03-15T01:14:32.436Z,15.75
2018-03-15T01:15:04.952Z,15.85
2018-03-15T01:15:38.246Z,16.48
2018-03-15T01:16:10.764Z,16.27
2018-03-15T01:16:43.295Z,15.73
2018-03-15T01:17:16.015Z,16.55
2018-03-15T01:17:48.547Z,16.40
2018-03-15T01:18:21.087Z,15.88
2018-03-15T01:18:53.752Z,14.87
2018-03-15T01:19:26.434Z,16.12
2018-03-15T01:20:37.875Z,15.70
2018-03-15T01:21:10.391Z,14.70
2018-03-15T01:21:42.908Z,16.48
2018-03-15T01:22:15.445Z,14.52
2018-03-15T01:22:47.978Z,15.48
2018-03-15T01:23:20.551Z,15.77
2018-03-15T01:23:53.193Z,15.57
2018-03-15T01:24:25.723Z,15.85
2018-03-15T01:24:58.240Z,14.98
2018-03-15T01:25:30.746Z,14.93
2018-03-15T01:26:03.264Z,14.93
2018-03-15T01:26:35.997Z,15.80
2018-03-15T01:27:08.560Z,15.38
2018-03-15T01:27:41.125Z,14.75
2018-03-15T01:28:13.662Z,15.10
2018-03-15T01:28:46.170Z,15.27
2018-03-15T01:29:18.681Z,18.02
2018-03-15T01:29:51.971Z,14.65
2018-03-15T01:30:24.485Z,15.32
2018-03-15T01:30:57.075Z,14.95
2018-03-15T01:31:29.590Z,15.18
2018-03-15T01:32:02.119Z,14.70
2018-03-15T01:32:35.394Z,14.80
2018-03-15T01:33:07.893Z,14.63
2018-03-15T01:33:40.423Z,13.98
2018-03-15T01:34:13.726Z,17.37
2018-03-15T01:34:46.221Z,13.80
2018-03-15T01:35:18.720Z,14.05
2018-03-15T01:35:51.232Z,14.60
2018-03-15T01:36:23.741Z,15.98
2018-03-15T01:36:56.559Z,15.90
2018-03-15T01:37:29.093Z,15.35
2018-03-15T01:38:01.601Z,16.05
2018-03-15T01:38:34.102Z,15.45
2018-03-15T01:39:06.737Z,14.70
2018-03-15T01:39:39.281Z,16.30
2018-03-15T01:40:11.799Z,15.65
2018-03-15T01:40:44.313Z,14.57
2018-03-15T01:41:17.054Z,13.23
2018-03-15T01:41:49.573Z,15.32
2018-03-15T01:42:22.082Z,14.50
2018-03-15T01:42:54.594Z,15.82
2018-03-15T01:43:27.101Z,14.65
2018-03-15T01:43:59.628Z,14.98
2018-03-15T01:44:32.454Z,16.48
2018-03-15T01:45:04.983Z,15.32
2018-03-15T01:45:37.582Z,15.60
2018-03-15T01:46:10.093Z,14.38
2018-03-15T01:46:42.708Z,15.68
2018-03-15T01:47:15.260Z,15.25
2018-03-15T01:47:47.772Z,15.32
2018-03-15T01:48:20.274Z,15.23
2018-03-15T01:48:53.554Z,14.93
2018-03-15T01:49:26.249Z,15.63
2018-03-15T01:49:58.813Z,14.70
2018-03-15T01:50:31.637Z,15.48
2018-03-15T01:51:04.150Z,15.18
2018-03-15T01:51:36.653Z,14.30
2018-03-15T01:52:09.166Z,13.93
2018-03-15T01:52:41.684Z,15.52
2018-03-15T01:53:14.314Z,15.10
2018-03-15T01:53:46.823Z,13.65
2018-03-15T01:54:20.171Z,14.75
2018-03-15T01:54:52.698Z,15.05
2018-03-15T01:55:25.376Z,14.45
2018-03-15T01:55:57.918Z,15.65
2018-03-15T01:56:30.626Z,14.63
2018-03-15T01:57:03.265Z,13.88
2018-03-15T01:57:35.831Z,14.57
2018-03-15T01:58:08.342Z,14.68
2018-03-15T01:58:40.854Z,15.07
2018-03-15T01:59:13.523Z,14.15
2018-03-15T01:59:46.033Z,15.60
2018-03-15T02:00:18.653Z,16.30
2018-03-15T02:00:51.192Z,15.93
2018-03-15T02:01:23.779Z,15.82
2018-03-15T02:01:56.327Z,14.50
2018-03-15T02:02:28.827Z,14.55
2018-03-15T02:03:01.339Z,15.40
2018-03-15T02:03:34.618Z,15.20
2018-03-15T02:04:07.144Z,15.77
2018-03-15T02:04:39.722Z,14.95
2018-03-15T02:05:12.252Z,14.20
2018-03-15T02:05:44.933Z,15.82
2018-03-15T02:06:17.450Z,14.63
2018-03-15T02:06:49.961Z,15.60
2018-03-15T02:07:22.466Z,15.55
2018-03-15T02:07:55.751Z,14.25
2018-03-15T02:08:28.260Z,15.60
2018-03-15T02:09:00.906Z,15.23
2018-03-15T02:09:33.419Z,15.50
2018-03-15T02:10:06.004Z,14.30
2018-03-15T02:10:38.522Z,15.23
2018-03-15T02:11:11.033Z,15.55
2018-03-15T02:11:44.354Z,15.13
2018-03-15T02:12:16.867Z,16.08
2018-03-15T02:12:49.380Z,14.20
2018-03-15T02:13:21.914Z,15.20
2018-03-15T02:13:55.213Z,14.23
2018-03-15T02:14:27.722Z,14.27
2018-03-15T02:15:00.226Z,16.37
2018-03-15T02:15:32.742Z,15.93
2018-03-15T02:16:05.399Z,14.95
2018-03-15T02:16:37.905Z,14.32
2018-03-15T02:17:11.196Z,16.05
2018-03-15T02:17:43.705Z,15.80
2018-03-15T02:18:16.213Z,14.52
2018-03-15T02:18:49.490Z,16.70
2018-03-15T02:19:21.993Z,16.08
2018-03-15T02:19:54.755Z,15.40
2018-03-15T02:20:27.507Z,14.80
2018-03-15T02:21:00.076Z,15.85
2018-03-15T02:21:32.582Z,16.00
2018-03-15T02:22:05.097Z,15.00
2018-03-15T02:22:37.638Z,15.40
2018-03-15T02:23:10.940Z,15.27
2018-03-15T02:23:43.449Z,15.20
2018-03-15T02:24:16.083Z,15.00
2018-03-15T02:24:48.647Z,16.27
2018-03-15T02:25:21.314Z,14.18
2018-03-15T02:25:53.985Z,14.63
2018-03-15T02:26:26.541Z,15.98
2018-03-15T02:26:59.046Z,16.30
2018-03-15T02:27:31.549Z,15.85
2018-03-15T02:28:04.081Z,15.88
2018-03-15T02:28:36.594Z,15.88
2018-03-15T02:29:09.146Z,16.10
2018-03-15T02:29:41.674Z,15.00
2018-03-15T02:30:14.189Z,16.02
2018-03-15T02:30:46.768Z,16.08
2018-03-15T02:31:19.278Z,15.20
2018-03-15T02:31:52.562Z,16.00
2018-03-15T02:32:25.089Z,15.70
2018-03-15T02:32:57.593Z,15.63
2018-03-15T02:33:30.904Z,15.80
2018-03-15T02:34:03.402Z,16.73
2018-03-15T02:34:36.013Z,15.35
2018-03-15T02:35:08.674Z,15.55
2018-03-15T02:35:41.380Z,14.85
2018-03-15T02:36:13.902Z,16.12
2018-03-15T02:36:47.175Z,15.13
2018-03-15T02:37:19.702Z,15.10
2018-03-15T02:37:52.215Z,14.85
2018-03-15T02:38:25.492Z,16.70
2018-03-15T02:38:58.015Z,15.88
2018-03-15T02:39:30.620Z,16.62
2018-03-15T02:40:03.120Z,15.10
2018-03-15T02:40:35.726Z,15.70
2018-03-15T02:41:09.006Z,14.85
2018-03-15T02:41:41.547Z,16.15
2018-03-15T02:42:14.064Z,15.95
2018-03-15T02:42:46.747Z,15.93
2018-03-15T02:43:19.310Z,17.33
2018-03-15T02:43:51.977Z,16.27
2018-03-15T02:44:24.509Z,15.65
2018-03-15T02:44:57.792Z,16.02
2018-03-15T02:45:30.305Z,16.15
2018-03-15T02:46:02.946Z,17.75
2018-03-15T02:46:35.447Z,17.30
2018-03-15T02:47:07.971Z,16.10
2018-03-15T02:47:40.742Z,16.42
2018-03-15T02:48:13.307Z,16.65
2018-03-15T02:48:45.822Z,16.02
2018-03-15T02:49:18.636Z,16.60
2018-03-15T02:49:51.196Z,15.75
2018-03-15T02:50:23.702Z,14.90
2018-03-15T02:50:56.219Z,16.17
2018-03-15T02:51:28.729Z,16.37
2018-03-15T02:52:01.237Z,16.17
2018-03-15T02:52:33.753Z,16.12
2018-03-15T02:53:06.295Z,16.30
2018-03-15T02:53:38.794Z,15.20
2018-03-15T02:54:11.306Z,16.45
2018-03-15T02:54:43.914Z,15.90
2018-03-15T02:55:16.620Z,16.45
2018-03-15T02:55:49.322Z,16.05
2018-03-15T02:56:22.054Z,16.58
2018-03-15T02:56:54.558Z,15.38
2018-03-15T02:57:27.063Z,15.45
2018-03-15T02:57:59.569Z,16.00
2018-03-15T02:58:32.077Z,16.60
2018-03-15T02:59:04.587Z,16.80
2018-03-15T02:59:37.112Z,16.12
2018-03-15T03:00:09.622Z,18.35
2018-03-15T03:00:42.155Z,16.35
2018-03-15T03:01:14.666Z,17.60
2018-03-15T03:01:47.172Z,17.58
2018-03-15T03:02:20.454Z,17.70
2018-03-15T03:02:53.032Z,16.50
2018-03-15T03:03:25.850Z,17.92
2018-03-15T03:03:58.387Z,18.05
2018-03-15T03:04:30.894Z,18.58
2018-03-15T03:05:03.423Z,17.62
2018-03-15T03:05:36.127Z,18.02
2018-03-15T03:06:08.655Z,16.48
2018-03-15T03:06:41.293Z,17.00
2018-03-15T03:07:13.858Z,16.08
2018-03-15T03:07:46.382Z,16.23
2018-03-15T03:08:19.097Z,16.50
2018-03-15T03:08:51.599Z,17.15
2018-03-15T03:09:24.112Z,18.73
2018-03-15T03:09:56.678Z,18.67
2018-03-15T03:10:29.243Z,17.67
2018-03-15T03:11:01.753Z,16.17
2018-03-15T03:11:34.279Z,16.58
2018-03-15T03:12:06.797Z,17.10
2018-03-15T03:12:40.224Z,16.92
2018-03-15T03:13:12.996Z,17.00
2018-03-15T03:13:45.509Z,17.17
2018-03-15T03:14:18.038Z,16.92
2018-03-15T03:14:50.544Z,17.85
2018-03-15T03:15:23.050Z,17.80
2018-03-15T03:15:55.564Z,18.87
2018-03-15T03:16:28.097Z,17.10
2018-03-15T03:17:00.618Z,18.12
2018-03-15T03:17:33.129Z,17.08
2018-03-15T03:18:05.634Z,17.73
2018-03-15T03:18:38.943Z,18.27
2018-03-15T03:19:11.609Z,17.62
2018-03-15T03:19:44.117Z,18.35
2018-03-15T03:20:16.628Z,18.45
2018-03-15T03:20:49.141Z,17.27
2018-03-15T03:21:22.411Z,18.27
2018-03-15T03:21:54.913Z,18.65
2018-03-15T03:22:27.438Z,18.02
2018-03-15T03:22:59.986Z,18.00
2018-03-15T03:23:32.731Z,17.70
2018-03-15T03:24:05.262Z,17.73
2018-03-15T03:24:37.773Z,18.25
2018-03-15T03:25:10.294Z,17.25
2018-03-15T03:25:42.806Z,17.60
2018-03-15T03:26:15.313Z,17.17
2018-03-15T03:26:48.590Z,16.90
2018-03-15T03:27:21.103Z,16.17
2018-03-15T03:27:53.756Z,16.60
2018-03-15T03:28:26.256Z,16.70
2018-03-15T03:28:58.754Z,17.48
2018-03-15T03:29:32.054Z,17.20
2018-03-15T03:30:04.570Z,18.08
2018-03-15T03:30:37.094Z,18.98
2018-03-15T03:31:09.597Z,18.33
2018-03-15T03:31:42.114Z,19.67
2018-03-15T03:32:14.804Z,18.12
2018-03-15T03:32:47.394Z,18.90
2018-03-15T03:33:19.929Z,20.00
2018-03-15T03:33:52.446Z,15.95
2018-03-15T03:34:25.726Z,18.08
2018-03-15T03:34:58.267Z,18.33
2018-03-15T03:35:30.776Z,17.55
2018-03-15T03:36:03.286Z,18.80
2018-03-15T03:36:35.798Z,18.10
2018-03-15T03:37:08.311Z,17.58
2018-03-15T03:37:40.845Z,17.58
2018-03-15T03:38:13.367Z,16.58
2018-03-15T03:38:45.890Z,18.23
2018-03-15T03:39:18.448Z,16.83
2018-03-15T03:39:50.964Z,18.23
2018-03-15T03:40:24.269Z,17.17
2018-03-15T03:40:56.794Z,17.83
2018-03-15T03:41:29.312Z,19.05
2018-03-15T03:42:01.827Z,19.90
2018-03-15T03:42:35.101Z,18.30
2018-03-15T03:43:07.614Z,19.20
2018-03-15T03:43:40.132Z,20.20
2018-03-15T03:44:13.448Z,19.95
2018-03-15T03:44:46.112Z,18.12
2018-03-15T03:45:18.797Z,16.50
2018-03-15T03:45:51.310Z,15.38
2018-03-15T03:46:24.589Z,17.20
2018-03-15T03:46:57.117Z,16.12
2018-03-15T03:47:29.847Z,18.02
2018-03-15T03:48:02.419Z,18.12
2018-03-15T03:48:35.103Z,17.85
2018-03-15T03:49:07.610Z,18.70
2018-03-15T03:49:40.165Z,18.02
2018-03-15T03:50:12.884Z,19.20
2018-03-15T03:50:45.438Z,18.10
2018-03-15T03:51:17.951Z,17.08
2018-03-15T03:51:50.462Z,18.80
2018-03-15T03:52:22.995Z,17.65
2018-03-15T03:52:56.308Z,17.67
2018-03-15T03:53:28.872Z,18.45
2018-03-15T03:54:01.391Z,17.70
2018-03-15T03:54:33.906Z,16.80
2018-03-15T03:55:06.439Z,17.25
2018-03-15T03:55:39.714Z,16.85
2018-03-15T03:56:12.244Z,18.40
2018-03-15T03:56:44.865Z,17.55
2018-03-15T03:57:17.430Z,18.10
2018-03-15T03:57:49.941Z,17.45
2018-03-15T03:58:22.455Z,18.30
2018-03-15T03:58:55.107Z,17.10
2018-03-15T03:59:27.615Z,19.05
2018-03-15T04:00:00.362Z,17.90
2018-03-15T04:00:32.869Z,17.85
2018-03-15T04:01:05.381Z,16.75
2018-03-15T04:01:37.897Z,17.67
2018-03-15T04:02:10.412Z,16.87
2018-03-15T04:02:42.918Z,19.00
2018-03-15T04:03:15.630Z,18.55
2018-03-15T04:03:48.197Z,18.12
2018-03-15T04:04:20.718Z,17.02
2018-03-15T04:04:54.187Z,15.80
2018-03-15T04:05:26.730Z,16.95
2018-03-15T04:05:59.268Z,17.15
2018-03-15T04:06:32.546Z,18.75
2018-03-15T04:07:05.058Z,17.67
2018-03-15T04:07:37.604Z,17.50
2018-03-15T04:08:10.119Z,18.05
2018-03-15T04:08:43.380Z,16.70
2018-03-15T04:09:15.894Z,17.92
2018-03-15T04:09:48.402Z,17.02
2018-03-15T04:10:20.919Z,18.65
2018-03-15T04:10:53.607Z,17.65
2018-03-15T04:11:26.164Z,17.15
2018-03-15T04:11:58.770Z,16.98
2018-03-15T04:12:31.274Z,18.40
2018-03-15T04:13:03.782Z,16.95
2018-03-15T04:13:36.295Z,17.67
2018-03-15T04:14:08.806Z,17.30
2018-03-15T04:14:41.311Z,17.70
2018-03-15T04:15:14.003Z,15.38
2018-03-15T04:15:46.585Z,16.77
2018-03-15T04:16:19.249Z,16.30
2018-03-15T04:16:51.891Z,16.87
2018-03-15T04:17:24.400Z,17.23
2018-03-15T04:17:57.005Z,15.88
2018-03-15T04:18:29.514Z,16.50
2018-03-15T04:19:02.040Z,16.17
2018-03-15T04:19:34.546Z,17.58
2018-03-15T04:20:07.191Z,16.83
2018-03-15T04:20:39.753Z,18.60
2018-03-15T04:21:12.258Z,17.45
2018-03-15T04:21:44.773Z,17.60
2018-03-15T04:22:17.366Z,16.30
2018-03-15T04:22:50.092Z,15.23
2018-03-15T04:23:22.611Z,16.87
2018-03-15T04:23:55.146Z,17.30
2018-03-15T04:24:27.660Z,16.58
2018-03-15T04:25:00.954Z,16.10
2018-03-15T04:25:33.470Z,16.77
2018-03-15T04:26:05.988Z,16.25
2018-03-15T04:26:38.497Z,16.10
2018-03-15T04:27:11.336Z,17.33
2018-03-15T04:27:44.189Z,17.52
2018-03-15T04:28:16.708Z,16.98
2018-03-15T04:28:49.233Z,18.60
2018-03-15T04:29:21.734Z,15.82
2018-03-15T04:29:54.245Z,16.75
2018-03-15T04:30:26.749Z,16.73
2018-03-15T04:30:59.259Z,16.48
2018-03-15T04:31:31.790Z,16.58
2018-03-15T04:32:04.293Z,16.58
2018-03-15T04:32:36.802Z,16.65
2018-03-15T04:33:09.420Z,15.88
2018-03-15T04:33:41.939Z,16.33
2018-03-15T04:34:15.280Z,17.70
2018-03-15T04:34:47.963Z,17.30
2018-03-15T04:35:20.595Z,15.95
2018-03-15T04:35:53.107Z,17.55
2018-03-15T04:36:25.621Z,18.65
2018-03-15T04:36:58.291Z,16.92
2018-03-15T04:37:30.797Z,18.05
2018-03-15T04:38:03.302Z,16.77
2018-03-15T04:38:36.591Z,17.45
2018-03-15T04:39:09.116Z,15.38
2018-03-15T04:39:41.840Z,17.12
2018-03-15T04:40:14.519Z,17.10
2018-03-15T04:40:47.114Z,16.87
2018-03-15T04:41:19.621Z,17.10
2018-03-15T04:41:52.286Z,16.92
2018-03-15T04:42:24.796Z,17.15
2018-03-15T04:42:57.313Z,18.52
2018-03-15T04:43:29.822Z,18.45
2018-03-15T04:44:02.491Z,17.02
2018-03-15T04:44:34.997Z,16.75
2018-03-15T04:45:08.402Z,17.12
2018-03-15T04:45:40.919Z,15.82
2018-03-15T04:46:13.431Z,16.87
2018-03-15T04:46:45.935Z,16.77
2018-03-15T04:47:18.437Z,17.12
2018-03-15T04:47:51.719Z,16.52
2018-03-15T04:48:24.254Z,16.27
2018-03-15T04:48:56.804Z,17.50
2018-03-15T04:49:29.468Z,17.05
2018-03-15T04:50:01.977Z,16.65
2018-03-15T04:50:34.656Z,18.00
2018-03-15T04:51:07.173Z,16.73
2018-03-15T04:51:39.682Z,15.93
2018-03-15T04:52:12.187Z,16.48
2018-03-15T04:52:44.805Z,16.08
2018-03-15T04:53:17.313Z,16.80
2018-03-15T04:53:49.852Z,16.70
2018-03-15T04:54:22.500Z,16.12
2018-03-15T04:54:55.026Z,17.40
2018-03-15T04:55:27.533Z,15.15
2018-03-15T04:56:00.028Z,15.80
2018-03-15T04:56:33.425Z,17.15
2018-03-15T04:57:05.933Z,16.10
2018-03-15T04:57:38.449Z,17.83
2018-03-15T04:58:10.962Z,15.15
2018-03-15T04:58:43.544Z,16.55
2018-03-15T04:59:16.191Z,15.85
2018-03-15T04:59:48.703Z,16.40
2018-03-15T05:00:21.230Z,16.50
2018-03-15T05:00:53.818Z,15.15
2018-03-15T05:01:26.329Z,15.23
2018-03-15T05:01:58.850Z,16.40
2018-03-15T05:02:31.639Z,15.57
2018-03-15T05:03:04.449Z,14.93
2018-03-15T05:03:37.129Z,17.85
2018-03-15T05:04:09.656Z,16.70
2018-03-15T05:04:42.248Z,15.63
2018-03-15T05:05:14.749Z,15.80
2018-03-15T05:05:47.274Z,15.43
2018-03-15T05:06:19.840Z,14.30
2018-03-15T05:06:52.353Z,15.65
2018-03-15T05:07:24.862Z,15.95
2018-03-15T05:07:57.483Z,15.32
2018-03-15T05:08:30.098Z,16.00
2018-03-15T05:09:02.764Z,15.07
2018-03-15T05:09:35.281Z,15.90
2018-03-15T05:10:07.802Z,14.60
2018-03-15T05:10:40.323Z,15.10
2018-03-15T05:11:13.015Z,15.38
2018-03-15T05:11:45.515Z,16.12
2018-03-15T05:12:18.015Z,16.05
2018-03-15T05:12:50.521Z,15.85
2018-03-15T05:13:23.034Z,15.30
2018-03-15T05:13:56.311Z,16.62
2018-03-15T05:14:28.898Z,15.18
2018-03-15T05:15:01.417Z,15.30
2018-03-15T05:15:34.974Z,15.05
2018-03-15T05:16:07.651Z,16.15
2018-03-15T05:16:40.385Z,15.15
2018-03-15T05:17:12.898Z,15.30
2018-03-15T05:17:45.428Z,14.32
2018-03-15T05:18:18.037Z,16.12
2018-03-15T05:18:50.546Z,15.35
2018-03-15T05:19:23.161Z,14.82
2018-03-15T05:19:55.679Z,15.55
2018-03-15T05:20:28.344Z,14.40
2018-03-15T05:21:00.862Z,15.70
2018-03-15T05:21:33.570Z,16.05
2018-03-15T05:22:06.419Z,16.30
2018-03-15T05:22:38.946Z,15.82
2018-03-15T05:23:11.456Z,15.18
2018-03-15T05:23:43.966Z,15.95
2018-03-15T05:24:16.470Z,14.90
2018-03-15T05:24:49.756Z,15.23
2018-03-15T05:25:22.267Z,17.25
2018-03-15T05:25:54.803Z,15.88
2018-03-15T05:26:27.311Z,15.05
2018-03-15T05:27:00.008Z,14.50
2018-03-15T05:27:32.544Z,14.73
2018-03-15T05:28:05.074Z,15.43
2018-03-15T05:28:37.623Z,14.80
2018-03-15T05:29:10.173Z,15.20
2018-03-15T05:29:42.679Z,15.60
2018-03-15T05:30:15.181Z,16.05
2018-03-15T05:30:47.685Z,16.75
2018-03-15T05:31:20.197Z,16.52
2018-03-15T05:31:52.721Z,15.60
2018-03-15T05:32:25.231Z,15.30
2018-03-15T05:32:58.506Z,15.25
2018-03-15T05:33:31.019Z,15.05
2018-03-15T05:34:03.532Z,14.50
2018-03-15T05:34:36.813Z,15.55
2018-03-15T05:35:09.317Z,16.80
2018-03-15T05:35:41.819Z,15.98
2018-03-15T05:36:14.327Z,15.88
2018-03-15T05:36:46.835Z,16.02
2018-03-15T05:37:19.380Z,15.18
2018-03-15T05:37:51.883Z,16.08
2018-03-15T05:38:24.418Z,16.15
2018-03-15T05:38:56.988Z,16.87
2018-03-15T05:39:29.520Z,15.43
2018-03-15T05:40:02.034Z,16.37
2018-03-15T05:40:34.547Z,16.05
2018-03-15T05:41:07.082Z,16.48
2018-03-15T05:41:39.673Z,17.87
2018-03-15T05:42:12.202Z,16.02
2018-03-15T05:42:44.730Z,16.05
2018-03-15T05:43:17.242Z,15.82
2018-03-15T05:43:49.777Z,15.85
2018-03-15T05:44:22.295Z,17.00
2018-03-15T05:44:54.859Z,15.15
2018-03-15T05:45:28.264Z,16.45
2018-03-15T05:46:00.765Z,15.18
2018-03-15T05:46:33.490Z,15.77
2018-03-15T05:47:06.586Z,16.87
2018-03-15T05:47:39.097Z,16.58
2018-03-15T05:48:11.610Z,15.52
2018-03-15T05:48:44.134Z,16.40
2018-03-15T05:49:16.668Z,16.45
2018-03-15T05:49:49.174Z,16.20
2018-03-15T05:50:21.749Z,16.87
2018-03-15T05:50:54.378Z,16.58
2018-03-15T05:51:26.921Z,15.50
2018-03-15T05:51:59.460Z,16.12
2018-03-15T05:52:32.004Z,16.42
2018-03-15T05:53:04.554Z,16.00
2018-03-15T05:53:37.069Z,15.45
2018-03-15T05:54:10.355Z,16.77
2018-03-15T05:54:43.460Z,15.10
2018-03-15T05:55:15.975Z,16.65
2018-03-15T05:55:48.497Z,16.98
2018-03-15T05:56:21.006Z,18.05
2018-03-15T05:56:53.533Z,17.08
2018-03-15T05:57:26.043Z,16.02
2018-03-15T05:57:58.572Z,16.33
2018-03-15T05:58:31.069Z,16.77
2018-03-15T05:59:03.578Z,16.73
2018-03-15T05:59:36.244Z,16.67
2018-03-15T06:00:08.766Z,17.83
2018-03-15T06:00:42.180Z,17.02
2018-03-15T06:01:14.701Z,17.50
2018-03-15T06:01:47.310Z,17.48
2018-03-15T06:02:20.066Z,15.65
2018-03-15T06:02:52.595Z,17.33
2018-03-15T06:03:25.150Z,17.08
2018-03-15T06:03:58.433Z,15.95
2018-03-15T06:04:30.948Z,17.80
2018-03-15T06:05:03.454Z,16.42
2018-03-15T06:05:37.102Z,17.48
2018-03-15T06:06:09.664Z,16.27
2018-03-15T06:06:42.561Z,17.00
2018-03-15T06:07:15.090Z,16.80
2018-03-15T06:07:47.664Z,16.48
2018-03-15T06:08:20.237Z,16.40
2018-03-15T06:08:52.736Z,16.80
2018-03-15T06:09:25.282Z,17.85
2018-03-15T06:09:57.778Z,17.33
2018-03-15T06:10:30.289Z,16.20
2018-03-15T06:11:02.823Z,15.82
2018-03-15T06:11:36.101Z,17.45
2018-03-15T06:12:08.633Z,17.42
2018-03-15T06:12:41.151Z,17.98
2018-03-15T06:13:13.708Z,16.92
2018-03-15T06:13:46.228Z,17.15
2018-03-15T06:14:18.768Z,16.52
2018-03-15T06:14:51.304Z,17.83
2018-03-15T06:15:24.057Z,18.85
2018-03-15T06:15:56.568Z,18.58
2018-03-15T06:16:29.304Z,17.73
2018-03-15T06:17:01.802Z,16.17
2018-03-15T06:17:34.323Z,19.20
2018-03-15T06:18:06.866Z,18.42
2018-03-15T06:18:40.276Z,17.58
2018-03-15T06:19:12.868Z,18.75
2018-03-15T06:19:45.404Z,19.00
2018-03-15T06:20:18.039Z,17.15
2018-03-15T06:20:50.553Z,18.05
2018-03-15T06:21:23.096Z,18.27
2018-03-15T06:21:55.860Z,17.73
2018-03-15T06:22:28.416Z,17.12
2018-03-15T06:23:00.922Z,16.83
2018-03-15T06:23:33.444Z,17.70
2018-03-15T06:24:05.959Z,19.75
2018-03-15T06:24:38.506Z,17.48
2018-03-15T06:25:11.029Z,17.10
2018-03-15T06:25:43.541Z,18.02
2018-03-15T06:26:16.075Z,19.42
2018-03-15T06:26:48.585Z,19.50
2018-03-15T06:27:21.114Z,19.05
2018-03-15T06:27:53.671Z,17.40
2018-03-15T06:28:26.180Z,20.12
2018-03-15T06:28:58.707Z,18.17
2018-03-15T06:29:31.224Z,17.23
2018-03-15T06:30:04.490Z,18.15
2018-03-15T06:30:37.021Z,18.27
2018-03-15T06:31:09.522Z,18.92
2018-03-15T06:31:42.939Z,17.75
2018-03-15T06:32:15.648Z,18.92
2018-03-15T06:32:48.262Z,18.80
2018-03-15T06:33:20.790Z,18.90
2018-03-15T06:33:53.383Z,19.83
2018-03-15T06:34:26.454Z,18.55
2018-03-15T06:34:58.983Z,17.75
2018-03-15T06:35:31.500Z,18.02
2018-03-15T06:36:04.010Z,17.77
2018-03-15T06:36:36.513Z,19.65
2018-03-15T06:37:09.030Z,17.60
2018-03-15T06:37:41.538Z,18.27
2018-03-15T06:38:14.842Z,18.58
2018-03-15T06:38:47.353Z,18.92
2018-03-15T06:39:19.946Z,19.85
2018-03-15T06:39:52.471Z,18.40
2018-03-15T06:40:25.003Z,19.67
2018-03-15T06:40:57.526Z,18.60
2018-03-15T06:41:30.805Z,19.55
2018-03-15T06:42:04.096Z,20.30
2018-03-15T06:42:36.995Z,19.25
2018-03-15T06:43:09.598Z,19.50
2018-03-15T06:43:42.118Z,18.55
2018-03-15T06:44:14.625Z,19.05
2018-03-15T06:44:47.166Z,18.67
2018-03-15T06:45:19.678Z,18.77
2018-03-15T06:45:52.197Z,19.02
2018-03-15T06:46:24.726Z,19.25
2018-03-15T06:46:57.301Z,21.27
2018-03-15T06:47:29.837Z,19.62
2018-03-15T06:48:05.553Z,18.67
2018-03-15T06:48:38.100Z,19.12
2018-03-15T06:49:10.618Z,18.37
2018-03-15T06:49:43.144Z,20.12
2018-03-15T06:50:16.570Z,19.10
2018-03-15T06:50:49.123Z,19.45
2018-03-15T06:51:21.638Z,18.33
2018-03-15T06:51:54.158Z,19.35
2018-03-15T06:52:26.748Z,19.10
2018-03-15T06:52:59.285Z,18.20
2018-03-15T06:53:31.850Z,18.37
2018-03-15T06:54:04.381Z,19.60
2018-03-15T06:54:36.902Z,18.35
2018-03-15T06:55:09.413Z,18.98
2018-03-15T06:55:44.188Z,19.27
2018-03-15T06:56:16.694Z,20.33
2018-03-15T06:56:49.973Z,18.15
2018-03-15T06:57:22.476Z,18.55
2018-03-15T06:57:55.005Z,18.80
2018-03-15T06:58:28.274Z,19.12
2018-03-15T06:59:00.815Z,18.40
2018-03-15T06:59:33.321Z,19.55
2018-03-15T07:00:05.856Z,19.95
2018-03-15T07:00:39.144Z,19.20
2018-03-15T07:01:11.656Z,19.85